Terminal Aerodrome Forecast
Issued by NWS Wilmington, NC

Home | Current Version | Previous Version | Text Only | Print | Product List | Glossary On
Versions: 1 2 3 4 5 6 7 8 9 10 11 12 13 14 15 16 17 18 19 20 21 22 23 24 25 26 27
000
FTUS42 KILM 261700
TAFFLO
TAF
KFLO 261720Z 2618/2718 30011KT P6SM BKN016 BKN100
     FM262200 28005KT P6SM FEW050
      TEMPO 2710/2712 4SM BR
     FM271400 29011KT P6SM SCT080=

USA.gov is the U.S. government's official web portal to all federal, state and local government web resources and services.